createdAt,value
2018-08-14T00:00:22.139Z,510.80
2018-08-14T00:03:04.502Z,376.47
2018-08-14T00:05:47.802Z,605.50
2018-08-14T00:08:29.198Z,656.77
2018-08-14T00:11:11.083Z,701.53
2018-08-14T00:13:53.442Z,585.47
2018-08-14T00:16:33.496Z,699.97
2018-08-14T00:19:14.237Z,615.03
2018-08-14T00:21:53.440Z,752.93
2018-08-14T00:24:33.367Z,532.53
2018-08-14T00:27:14.777Z,592.37
2018-08-14T00:29:57.200Z,561.33
2018-08-14T00:32:39.861Z,575.03
2018-08-14T00:35:22.918Z,419.90
2018-08-14T00:38:05.684Z,353.87
2018-08-14T00:40:48.461Z,358.37
2018-08-14T00:43:29.820Z,344.17
2018-08-14T00:46:09.818Z,437.97
2018-08-14T00:48:50.919Z,381.63
2018-08-14T00:51:30.798Z,486.93
2018-08-14T00:54:12.224Z,469.30
2018-08-14T00:56:52.156Z,417.70
2018-08-14T00:59:33.120Z,415.37
2018-08-14T01:02:14.297Z,562.50
2018-08-14T01:04:55.603Z,434.53
2018-08-14T01:07:36.737Z,433.77
2018-08-14T01:10:19.075Z,468.93
2018-08-14T01:13:03.602Z,452.73
2018-08-14T01:15:42.318Z,509.03
2018-08-14T01:18:22.201Z,459.60
2018-08-14T01:21:02.946Z,680.57
2018-08-14T01:23:43.096Z,510.33
2018-08-14T01:26:25.564Z,467.30
2018-08-14T01:29:06.239Z,599.63
2018-08-14T01:31:46.961Z,604.90
2018-08-14T01:34:26.721Z,733.93
2018-08-14T01:37:10.720Z,752.27
2018-08-14T01:39:52.441Z,716.67
2018-08-14T01:42:34.517Z,740.30
2018-08-14T01:45:18.198Z,686.23
2018-08-14T01:47:59.660Z,634.47
2018-08-14T01:50:40.575Z,565.63
2018-08-14T01:53:20.580Z,647.63
2018-08-14T01:56:00.496Z,618.33
2018-08-14T01:58:40.239Z,574.87
2018-08-14T02:01:20.300Z,499.77
2018-08-14T02:03:59.222Z,588.23
2018-08-14T02:07:41.537Z,518.63
2018-08-14T02:10:25.619Z,620.07
2018-08-14T02:13:06.520Z,591.07
2018-08-14T02:15:45.781Z,627.87
2018-08-14T02:18:26.402Z,578.97
2018-08-14T02:21:07.819Z,573.60
2018-08-14T02:23:49.638Z,607.07
2018-08-14T02:26:32.704Z,716.50
2018-08-14T02:29:13.018Z,683.10
2018-08-14T02:31:52.861Z,714.67
2018-08-14T02:34:32.745Z,699.97
2018-08-14T02:37:12.138Z,679.17
2018-08-14T02:39:50.703Z,729.87
2018-08-14T02:42:31.069Z,673.30
2018-08-14T02:45:12.225Z,690.67
2018-08-14T02:47:56.660Z,651.57
2018-08-14T02:50:39.470Z,627.17
2018-08-14T02:53:21.189Z,664.50
2018-08-14T02:56:04.040Z,579.83
2018-08-14T02:58:44.981Z,671.37
2018-08-14T04:13:17.987Z,613.93
2018-08-14T04:16:01.204Z,628.73
2018-08-14T04:18:42.181Z,583.80
2018-08-14T04:21:21.662Z,670.27
2018-08-14T04:24:02.291Z,639.43
2018-08-14T04:26:45.160Z,500.40
2018-08-14T06:23:10.067Z,237.33
2018-08-14T06:25:56.164Z,252.23
2018-08-14T06:28:38.347Z,337.03
2018-08-14T06:31:19.609Z,604.03
2018-08-14T06:33:59.266Z,115.20
2018-08-14T06:36:40.649Z,122.03
2018-08-14T06:39:23.944Z,194.23
2018-08-14T06:42:11.603Z,135.80
2018-08-14T06:44:58.561Z,811.87
2018-08-14T06:47:37.939Z,800.77
2018-08-14T06:50:25.872Z,1142.33
2018-08-14T06:53:07.988Z,861.93
2018-08-14T06:55:50.190Z,1042.70
2018-08-14T06:58:28.580Z,989.03
2018-08-14T07:01:08.113Z,119.07
2018-08-14T07:03:51.078Z,302.80
2018-08-14T07:06:34.408Z,1089.57
2018-08-14T07:09:16.788Z,1099.67
2018-08-14T07:12:01.591Z,1327.00
2018-08-14T07:14:44.883Z,657.53
2018-08-14T07:17:25.582Z,1166.70
2018-08-14T07:20:07.426Z,1346.50
2018-08-14T07:22:48.030Z,1412.97
2018-08-14T07:25:30.646Z,1110.13
2018-08-14T07:28:12.961Z,1386.80
2018-08-14T07:30:54.267Z,1293.37
2018-08-14T07:33:34.384Z,1188.83
2018-08-14T07:36:13.697Z,1223.03
2018-08-14T07:38:57.920Z,1542.00
2018-08-14T07:41:39.924Z,1999.90
2018-08-14T07:44:21.226Z,1999.90
2018-08-14T07:47:00.053Z,1999.90
2018-08-14T08:10:48.030Z,1999.90
2018-08-14T08:13:32.668Z,1780.47
2018-08-14T08:16:14.320Z,1999.90
2018-08-14T08:18:55.207Z,1628.67
2018-08-14T08:21:37.965Z,1999.90
2018-08-14T08:24:23.686Z,1479.00
2018-08-14T08:27:02.475Z,1249.10
2018-08-14T08:29:49.109Z,1560.27
2018-08-14T08:32:30.962Z,1550.40
2018-08-14T08:35:14.334Z,1338.80
2018-08-14T08:37:53.324Z,903.40
2018-08-14T08:40:38.483Z,1026.53
2018-08-14T08:43:20.463Z,1847.73
2018-08-14T08:46:04.609Z,1581.17
2018-08-14T08:48:48.882Z,1269.27
2018-08-14T08:51:27.774Z,1232.30
2018-08-14T08:54:06.558Z,965.00
2018-08-14T08:56:45.889Z,1050.37
2018-08-14T08:59:27.984Z,1211.03
2018-08-14T09:02:08.750Z,1286.00
2018-08-14T09:04:51.189Z,1004.93
2018-08-14T09:07:37.124Z,1278.93
2018-08-14T09:10:20.942Z,1987.43
2018-08-14T09:13:06.383Z,1162.57
2018-08-14T09:15:49.342Z,1856.77
2018-08-14T09:18:31.012Z,1426.00
2018-08-14T09:21:14.845Z,1134.90
2018-08-14T09:24:02.301Z,1102.00
2018-08-14T09:26:47.865Z,881.37
2018-08-14T09:29:28.727Z,1302.60
2018-08-14T09:32:17.031Z,908.47
2018-08-14T09:35:02.925Z,609.70
2018-08-14T09:37:44.329Z,120.50
2018-08-14T09:40:31.883Z,122.33
2018-08-14T09:43:11.104Z,380.93
2018-08-14T09:45:53.046Z,680.23
2018-08-14T09:48:33.082Z,911.00
2018-08-14T09:51:18.265Z,264.47
2018-08-14T09:53:57.359Z,104.77
2018-08-14T09:56:42.984Z,192.37
2018-08-14T09:59:23.171Z,83.43
2018-08-14T10:02:06.545Z,277.63
2018-08-14T10:04:48.918Z,1054.27
2018-08-14T10:07:32.108Z,1194.63
2018-08-14T10:10:19.748Z,1103.40
2018-08-14T10:13:00.468Z,1128.67
2018-08-14T10:15:42.843Z,1157.40
2018-08-14T10:18:30.925Z,1243.60
2018-08-14T10:21:16.190Z,1204.03
2018-08-14T10:23:58.384Z,317.37
2018-08-14T10:26:38.373Z,167.90
2018-08-14T10:29:20.903Z,646.83
2018-08-14T10:32:04.762Z,1029.85
2018-08-14T10:34:45.927Z,635.05
2018-08-14T10:37:24.948Z,518.63
2018-08-14T10:40:06.138Z,831.57
2018-08-14T10:42:49.143Z,1154.17
2018-08-14T10:45:32.685Z,1256.20
2018-08-14T10:48:18.885Z,1137.07
2018-08-14T10:51:00.860Z,1219.43
2018-08-14T10:53:40.882Z,1191.83
2018-08-14T10:56:21.202Z,1051.90
2018-08-14T10:58:59.828Z,999.33
2018-08-14T11:40:31.202Z,998.30
2018-08-14T11:43:11.546Z,902.13
2018-08-14T11:45:54.510Z,433.90
2018-08-14T11:48:38.586Z,303.55
2018-08-14T11:51:18.548Z,760.20
2018-08-14T11:54:07.165Z,804.52
2018-08-14T11:56:47.960Z,781.78
2018-08-14T11:59:28.525Z,972.57
2018-08-14T12:02:21.469Z,1076.28
2018-08-14T12:05:01.847Z,996.10
2018-08-14T12:07:45.722Z,1095.03
2018-08-14T12:10:29.503Z,1182.88
2018-08-14T12:13:12.968Z,1182.73
2018-08-14T12:15:58.244Z,1145.22
2018-08-14T12:18:41.543Z,990.92
2018-08-14T12:21:24.948Z,759.50
2018-08-14T12:24:07.104Z,187.17
2018-08-14T12:26:51.828Z,121.53
2018-08-14T12:29:32.840Z,178.73
2018-08-14T12:32:16.444Z,263.97
2018-08-14T12:34:57.219Z,832.07
2018-08-14T12:37:38.425Z,340.95
2018-08-14T12:40:22.432Z,583.73
2018-08-14T12:43:02.576Z,258.43
2018-08-14T12:45:48.144Z,237.33
2018-08-14T12:48:30.002Z,299.43
2018-08-14T12:51:10.614Z,378.50
2018-08-14T12:53:50.007Z,429.45
2018-08-14T12:56:35.111Z,563.07
2018-08-14T12:59:14.703Z,595.27
2018-08-14T13:02:00.729Z,865.47
2018-08-14T13:04:43.986Z,97.45
2018-08-14T13:07:23.748Z,218.10
2018-08-14T13:10:06.368Z,139.50
2018-08-14T13:12:51.425Z,341.90
2018-08-14T13:15:34.267Z,505.00
2018-08-14T13:18:19.567Z,376.00
2018-08-14T13:20:59.306Z,409.53
2018-08-14T13:23:38.269Z,520.63
2018-08-14T13:26:18.610Z,668.80
2018-08-14T13:29:02.836Z,502.10
2018-08-14T13:31:43.913Z,542.72
2018-08-14T13:34:25.141Z,545.80
2018-08-14T13:37:07.265Z,443.23
2018-08-14T13:39:50.786Z,570.75
2018-08-14T13:42:34.424Z,418.97
2018-08-14T15:27:08.095Z,1775.60
2018-08-14T15:29:49.372Z,1999.90
2018-08-14T15:32:32.918Z,1999.90
2018-08-14T15:35:15.095Z,1999.90
2018-08-14T15:37:56.321Z,1999.90
2018-08-14T15:40:34.243Z,1999.90
2018-08-14T15:43:12.670Z,1999.90
2018-08-14T15:45:53.197Z,1999.90
2018-08-14T15:48:31.292Z,1999.90
2018-08-14T15:51:12.282Z,1999.90
2018-08-14T15:53:51.471Z,1999.90
2018-08-14T15:56:29.676Z,1999.90
2018-08-14T15:59:12.632Z,1999.90
2018-08-14T16:01:51.851Z,1999.90
2018-08-14T16:04:31.872Z,1953.93
2018-08-14T16:07:13.194Z,1999.90
2018-08-14T16:09:55.035Z,1999.90
2018-08-14T16:12:34.308Z,1999.90
2018-08-14T16:15:17.770Z,1999.90
2018-08-14T16:18:02.052Z,1999.90
2018-08-14T16:20:43.111Z,1999.90
2018-08-14T16:23:28.035Z,1999.90
2018-08-14T17:58:30.265Z,1677.60
2018-08-14T18:01:09.160Z,1573.70
2018-08-14T18:03:50.680Z,1487.93
2018-08-14T18:06:28.665Z,1472.23
2018-08-14T18:09:08.310Z,1465.87
2018-08-14T18:11:47.887Z,1468.73
2018-08-14T18:14:32.025Z,1349.97
2018-08-14T18:17:19.421Z,1539.33
2018-08-14T18:20:02.735Z,1496.37
2018-08-14T18:22:43.842Z,1617.97
2018-08-14T18:25:26.840Z,1497.87
2018-08-14T18:28:09.720Z,1395.37
2018-08-14T18:30:51.501Z,1360.90
2018-08-14T18:33:33.168Z,1297.10
2018-08-14T18:36:14.139Z,1263.80
2018-08-14T18:38:54.834Z,1161.50
2018-08-14T18:41:38.283Z,1192.97
2018-08-14T18:44:18.147Z,1111.67
2018-08-14T18:46:58.898Z,1105.03
2018-08-14T18:49:39.317Z,1143.70
2018-08-14T18:52:20.881Z,1111.20
2018-08-14T18:55:04.244Z,927.90
2018-08-14T18:57:46.741Z,1022.33
2018-08-14T19:00:32.296Z,1109.73
2018-08-14T19:03:16.197Z,1122.77
2018-08-14T19:05:58.442Z,1132.83
2018-08-14T19:08:38.299Z,1208.70
2018-08-14T19:11:20.460Z,1203.00
2018-08-14T19:14:03.948Z,1181.10
2018-08-14T19:16:42.945Z,1202.40
2018-08-14T19:19:23.881Z,1195.93
2018-08-14T19:22:02.402Z,1178.97
2018-08-14T19:24:43.917Z,1153.77
2018-08-14T19:27:26.057Z,1212.13
2018-08-14T19:30:08.656Z,1216.87
2018-08-14T19:32:50.418Z,1234.90
2018-08-14T19:35:33.496Z,1258.23
2018-08-14T19:38:15.537Z,1272.63
2018-08-14T19:40:59.820Z,1280.37
2018-08-14T19:43:41.542Z,1311.67
2018-08-14T19:46:22.782Z,1307.07
2018-08-14T19:49:06.829Z,1227.20
2018-08-14T19:51:51.359Z,1185.10
2018-08-14T19:54:33.663Z,1022.27
2018-08-14T19:57:16.371Z,863.83
2018-08-14T19:59:58.618Z,353.80
2018-08-14T20:02:38.905Z,336.10
2018-08-14T20:05:22.578Z,291.77
2018-08-14T20:08:03.761Z,579.87
2018-08-14T22:46:41.995Z,914.47
2018-08-14T22:49:21.612Z,887.17
2018-08-14T22:52:00.094Z,849.07
2018-08-14T22:54:40.368Z,825.17
2018-08-14T22:57:21.836Z,587.40
2018-08-14T23:00:04.904Z,729.00
2018-08-14T23:02:45.195Z,761.20
2018-08-14T23:05:27.291Z,680.37
2018-08-14T23:08:08.229Z,710.17
2018-08-14T23:10:48.113Z,613.20
2018-08-14T23:13:31.361Z,596.17
2018-08-14T23:16:10.853Z,815.63
2018-08-14T23:18:51.775Z,685.07
2018-08-14T23:21:31.832Z,774.90
2018-08-14T23:24:20.695Z,835.67
2018-08-14T23:27:03.996Z,676.73
2018-08-14T23:29:44.354Z,816.50
2018-08-14T23:32:25.989Z,830.43
2018-08-14T23:35:08.679Z,786.27
2018-08-14T23:37:49.481Z,824.03
2018-08-14T23:40:29.734Z,849.90
2018-08-14T23:43:10.192Z,779.13
2018-08-14T23:45:51.649Z,867.93
2018-08-14T23:48:31.331Z,798.27
2018-08-14T23:51:11.949Z,819.23
2018-08-14T23:53:54.232Z,856.10
2018-08-14T23:56:35.691Z,753.57
2018-08-14T23:59:15.832Z,764.23
